Terminal Aerodrome Forecast
Issued by NWS

Home | Current Version | Previous Version | Text Only | Print | Product List | Glossary On
Versions: 1 2 3 4 5 6 7 8 9 10 11 12 13 14 15
113
FTUS46 KMTR 260526
TAFSJC
TAF
KSJC 260526Z 2606/2706 32004KT P6SM SCT013
     FM260900 VRB03KT P6SM SCT012
      TEMPO 2610/2614 BKN012
     FM261800 31012KT P6SM FEW025
     FM270300 30008KT P6SM FEW020=

USA.gov is the U.S. government's official web portal to all federal, state and local government web resources and services.